sensor_id;sensor_type;location;lat;lon;timestamp;pressure;altitude;pressure_sealevel;temperature;humidity
30618;BME280;17384;51.214;9.202;2023-03-24T00:02:24;97544.19;;;11.05;81.19
30618;BME280;17384;51.214;9.202;2023-03-24T00:04:53;97543.59;;;11.03;81.19
30618;BME280;17384;51.214;9.202;2023-03-24T00:07:23;97545.81;;;11.06;81.14
30618;BME280;17384;51.214;9.202;2023-03-24T00:09:49;97540.97;;;11.08;80.82
30618;BME280;17384;51.214;9.202;2023-03-24T00:12:14;97553.47;;;11.09;81.22
30618;BME280;17384;51.214;9.202;2023-03-24T00:14:43;97554.78;;;11.07;81.51
30618;BME280;17384;51.214;9.202;2023-03-24T00:17:11;97542.13;;;11.12;80.97
30618;BME280;17384;51.214;9.202;2023-03-24T00:19:42;97532.66;;;11.15;80.78
30618;BME280;17384;51.214;9.202;2023-03-24T00:22:10;97540.47;;;11.11;81.36
30618;BME280;17384;51.214;9.202;2023-03-24T00:24:41;97526.91;;;11.11;81.07
30618;BME280;17384;51.214;9.202;2023-03-24T00:27:11;97533.31;;;11.05;81.37
30618;BME280;17384;51.214;9.202;2023-03-24T00:29:40;97523.59;;;11.09;81.50
30618;BME280;17384;51.214;9.202;2023-03-24T00:32:06;97507.81;;;11.06;81.34
30618;BME280;17384;51.214;9.202;2023-03-24T00:34:32;97520.66;;;11.11;81.16
30618;BME280;17384;51.214;9.202;2023-03-24T00:37:03;97517.09;;;11.10;81.14
30618;BME280;17384;51.214;9.202;2023-03-24T00:39:29;97506.50;;;11.09;81.35
30618;BME280;17384;51.214;9.202;2023-03-24T00:41:54;97495.41;;;11.10;81.00
30618;BME280;17384;51.214;9.202;2023-03-24T00:44:23;97505.03;;;11.01;81.78
30618;BME280;17384;51.214;9.202;2023-03-24T00:46:49;97492.59;;;11.05;81.69
30618;BME280;17384;51.214;9.202;2023-03-24T00:49:25;97486.53;;;10.98;82.16
30618;BME280;17384;51.214;9.202;2023-03-24T00:52:12;97483.25;;;10.96;82.14
30618;BME280;17384;51.214;9.202;2023-03-24T00:54:38;97482.63;;;10.89;82.89
30618;BME280;17384;51.214;9.202;2023-03-24T00:57:06;97467.50;;;10.93;82.61
30618;BME280;17384;51.214;9.202;2023-03-24T00:59:32;97465.38;;;10.78;83.67
30618;BME280;17384;51.214;9.202;2023-03-24T01:02:02;97473.59;;;10.67;84.16
30618;BME280;17384;51.214;9.202;2023-03-24T01:04:28;97470.09;;;10.49;85.37
30618;BME280;17384;51.214;9.202;2023-03-24T01:06:54;97466.22;;;10.45;86.15
30618;BME280;17384;51.214;9.202;2023-03-24T01:09:22;97463.94;;;10.37;86.69
30618;BME280;17384;51.214;9.202;2023-03-24T01:11:48;97458.34;;;10.27;87.13
30618;BME280;17384;51.214;9.202;2023-03-24T01:14:15;97449.81;;;10.35;86.84
30618;BME280;17384;51.214;9.202;2023-03-24T01:16:40;97443.00;;;10.33;86.88
30618;BME280;17384;51.214;9.202;2023-03-24T01:19:07;97432.31;;;10.26;87.41
30618;BME280;17384;51.214;9.202;2023-03-24T01:21:34;97438.03;;;10.13;88.32
30618;BME280;17384;51.214;9.202;2023-03-24T01:23:59;97438.78;;;10.08;88.51
30618;BME280;17384;51.214;9.202;2023-03-24T01:26:26;97436.94;;;10.14;88.00
30618;BME280;17384;51.214;9.202;2023-03-24T01:28:52;97429.88;;;10.13;88.37
30618;BME280;17384;51.214;9.202;2023-03-24T01:31:17;97424.81;;;10.16;88.03
30618;BME280;17384;51.214;9.202;2023-03-24T01:33:43;97416.44;;;10.18;87.95
30618;BME280;17384;51.214;9.202;2023-03-24T01:36:09;97431.53;;;10.14;88.32
30618;BME280;17384;51.214;9.202;2023-03-24T01:38:34;97433.69;;;10.12;88.47
30618;BME280;17384;51.214;9.202;2023-03-24T01:41:00;97420.94;;;10.12;88.55
30618;BME280;17384;51.214;9.202;2023-03-24T01:43:28;97424.75;;;10.11;88.66
30618;BME280;17384;51.214;9.202;2023-03-24T01:46:07;97426.22;;;10.02;89.31
30618;BME280;17384;51.214;9.202;2023-03-24T01:53:40;97423.34;;;10.09;88.95
30618;BME280;17384;51.214;9.202;2023-03-24T01:56:07;97426.34;;;10.12;89.09
30618;BME280;17384;51.214;9.202;2023-03-24T01:58:37;97414.16;;;10.10;89.13
30618;BME280;17384;51.214;9.202;2023-03-24T02:01:05;97419.72;;;10.03;89.18
30618;BME280;17384;51.214;9.202;2023-03-24T02:03:32;97398.88;;;10.04;89.35
30618;BME280;17384;51.214;9.202;2023-03-24T02:06:01;97396.97;;;10.04;89.31
30618;BME280;17384;51.214;9.202;2023-03-24T02:10:53;97397.13;;;9.98;89.91
30618;BME280;17384;51.214;9.202;2023-03-24T02:13:19;97374.88;;;9.96;90.39
30618;BME280;17384;51.214;9.202;2023-03-24T02:18:51;97396.97;;;9.88;90.97
30618;BME280;17384;51.214;9.202;2023-03-24T02:26:58;97370.88;;;9.81;91.65
30618;BME280;17384;51.214;9.202;2023-03-24T02:41:25;97356.03;;;9.84;92.37
30618;BME280;17384;51.214;9.202;2023-03-24T02:44:19;97346.50;;;9.81;92.25
30618;BME280;17384;51.214;9.202;2023-03-24T02:46:48;97340.06;;;9.88;92.28
30618;BME280;17384;51.214;9.202;2023-03-24T03:00:07;97314.81;;;9.82;92.63
30618;BME280;17384;51.214;9.202;2023-03-24T03:02:43;97323.78;;;9.82;92.74
30618;BME280;17384;51.214;9.202;2023-03-24T03:06:19;97325.47;;;9.89;92.36
30618;BME280;17384;51.214;9.202;2023-03-24T03:08:28;97310.03;;;9.89;92.51
30618;BME280;17384;51.214;9.202;2023-03-24T03:10:57;97322.19;;;9.87;92.59
30618;BME280;17384;51.214;9.202;2023-03-24T03:13:35;97311.94;;;9.89;92.66
30618;BME280;17384;51.214;9.202;2023-03-24T03:16:06;97313.00;;;9.88;92.61
30618;BME280;17384;51.214;9.202;2023-03-24T03:18:44;97317.59;;;9.87;92.39
30618;BME280;17384;51.214;9.202;2023-03-24T03:21:15;97292.72;;;9.90;92.35
30618;BME280;17384;51.214;9.202;2023-03-24T03:26:17;97282.13;;;9.89;92.14
30618;BME280;17384;51.214;9.202;2023-03-24T03:28:49;97281.56;;;9.87;92.10
30618;BME280;17384;51.214;9.202;2023-03-24T03:31:21;97276.38;;;9.85;92.21
30618;BME280;17384;51.214;9.202;2023-03-24T03:34:02;97292.13;;;9.88;92.05
30618;BME280;17384;51.214;9.202;2023-03-24T03:36:34;97284.84;;;9.89;92.25
30618;BME280;17384;51.214;9.202;2023-03-24T03:39:12;97281.81;;;9.85;92.11
30618;BME280;17384;51.214;9.202;2023-03-24T03:41:41;97271.53;;;9.87;91.80
30618;BME280;17384;51.214;9.202;2023-03-24T03:44:07;97272.59;;;9.86;91.77
30618;BME280;17384;51.214;9.202;2023-03-24T03:46:34;97273.44;;;9.87;92.01
30618;BME280;17384;51.214;9.202;2023-03-24T03:49:00;97255.03;;;9.89;91.60
30618;BME280;17384;51.214;9.202;2023-03-24T03:51:26;97259.34;;;9.84;91.82
30618;BME280;17384;51.214;9.202;2023-03-24T03:53:54;97240.09;;;9.86;91.59
30618;BME280;17384;51.214;9.202;2023-03-24T03:56:28;97252.56;;;9.87;91.81
30618;BME280;17384;51.214;9.202;2023-03-24T03:58:55;97230.16;;;9.92;91.78
30618;BME280;17384;51.214;9.202;2023-03-24T04:01:25;97242.06;;;9.91;91.80
30618;BME280;17384;51.214;9.202;2023-03-24T04:04:17;97239.84;;;9.88;91.76
30618;BME280;17384;51.214;9.202;2023-03-24T04:07:21;97223.59;;;9.88;91.94
30618;BME280;17384;51.214;9.202;2023-03-24T04:15:58;97221.97;;;9.87;92.22
30618;BME280;17384;51.214;9.202;2023-03-24T04:21:45;97225.13;;;9.78;92.67
30618;BME280;17384;51.214;9.202;2023-03-24T04:24:38;97206.41;;;9.77;92.92
30618;BME280;17384;51.214;9.202;2023-03-24T04:30:00;97226.19;;;9.77;92.99
30618;BME280;17384;51.214;9.202;2023-03-24T04:32:47;97217.00;;;9.78;92.95
30618;BME280;17384;51.214;9.202;2023-03-24T04:35:29;97227.00;;;9.78;93.11
30618;BME280;17384;51.214;9.202;2023-03-24T04:38:02;97226.75;;;9.79;93.27
30618;BME280;17384;51.214;9.202;2023-03-24T04:40:31;97218.16;;;9.82;93.15
30618;BME280;17384;51.214;9.202;2023-03-24T04:43:03;97221.91;;;9.81;93.10
30618;BME280;17384;51.214;9.202;2023-03-24T04:45:30;97220.84;;;9.82;92.95
30618;BME280;17384;51.214;9.202;2023-03-24T04:48:00;97220.28;;;9.80;92.97
30618;BME280;17384;51.214;9.202;2023-03-24T04:50:35;97201.56;;;9.79;93.24
30618;BME280;17384;51.214;9.202;2023-03-24T04:53:02;97227.84;;;9.78;93.41
30618;BME280;17384;51.214;9.202;2023-03-24T04:56:00;97200.81;;;9.83;93.23
30618;BME280;17384;51.214;9.202;2023-03-24T04:58:27;97223.56;;;9.82;93.23
30618;BME280;17384;51.214;9.202;2023-03-24T05:00:53;97210.00;;;9.82;93.32
30618;BME280;17384;51.214;9.202;2023-03-24T05:03:20;97210.50;;;9.79;93.49
30618;BME280;17384;51.214;9.202;2023-03-24T05:05:47;97203.22;;;9.80;93.68
30618;BME280;17384;51.214;9.202;2023-03-24T05:08:14;97181.59;;;9.85;93.45
30618;BME280;17384;51.214;9.202;2023-03-24T05:10:40;97179.69;;;9.85;93.33
30618;BME280;17384;51.214;9.202;2023-03-24T05:13:06;97196.53;;;9.88;93.29
30618;BME280;17384;51.214;9.202;2023-03-24T05:15:32;97178.63;;;9.87;93.07
30618;BME280;17384;51.214;9.202;2023-03-24T05:17:58;97198.56;;;9.97;92.60
30618;BME280;17384;51.214;9.202;2023-03-24T05:20:24;97180.34;;;9.93;92.91
30618;BME280;17384;51.214;9.202;2023-03-24T05:22:50;97199.06;;;9.94;92.45
30618;BME280;17384;51.214;9.202;2023-03-24T05:25:17;97193.31;;;9.91;92.78
30618;BME280;17384;51.214;9.202;2023-03-24T05:27:43;97200.94;;;9.94;92.26
30618;BME280;17384;51.214;9.202;2023-03-24T05:30:09;97185.75;;;9.93;92.20
30618;BME280;17384;51.214;9.202;2023-03-24T05:32:35;97187.72;;;9.97;92.06
30618;BME280;17384;51.214;9.202;2023-03-24T05:35:00;97188.47;;;9.93;92.46
30618;BME280;17384;51.214;9.202;2023-03-24T05:37:26;97174.44;;;9.96;92.00
30618;BME280;17384;51.214;9.202;2023-03-24T05:39:52;97193.97;;;9.98;92.07
30618;BME280;17384;51.214;9.202;2023-03-24T05:42:18;97197.50;;;9.98;91.93
30618;BME280;17384;51.214;9.202;2023-03-24T05:44:44;97201.59;;;10.01;91.34
30618;BME280;17384;51.214;9.202;2023-03-24T05:47:11;97202.22;;;10.08;91.19
30618;BME280;17384;51.214;9.202;2023-03-24T05:49:40;97196.31;;;10.11;90.95
30618;BME280;17384;51.214;9.202;2023-03-24T05:52:07;97189.81;;;10.12;90.77
30618;BME280;17384;51.214;9.202;2023-03-24T05:54:34;97205.78;;;10.13;90.65
30618;BME280;17384;51.214;9.202;2023-03-24T05:56:59;97203.41;;;10.17;90.04
30618;BME280;17384;51.214;9.202;2023-03-24T05:59:26;97202.25;;;10.30;88.95
30618;BME280;17384;51.214;9.202;2023-03-24T06:01:51;97198.84;;;10.39;88.75
30618;BME280;17384;51.214;9.202;2023-03-24T06:04:24;97200.03;;;10.48;88.24
30618;BME280;17384;51.214;9.202;2023-03-24T06:06:54;97202.78;;;10.54;87.72
30618;BME280;17384;51.214;9.202;2023-03-24T06:09:20;97203.94;;;10.58;87.52
30618;BME280;17384;51.214;9.202;2023-03-24T06:11:46;97217.69;;;10.78;86.67
30618;BME280;17384;51.214;9.202;2023-03-24T06:14:11;97226.97;;;10.82;86.43
30618;BME280;17384;51.214;9.202;2023-03-24T06:16:37;97218.22;;;10.75;86.29
30618;BME280;17384;51.214;9.202;2023-03-24T06:19:05;97215.50;;;10.75;86.11
30618;BME280;17384;51.214;9.202;2023-03-24T06:21:34;97220.53;;;10.88;85.65
30618;BME280;17384;51.214;9.202;2023-03-24T06:23:59;97207.84;;;10.94;85.73
30618;BME280;17384;51.214;9.202;2023-03-24T06:26:25;97211.25;;;10.84;85.61
30618;BME280;17384;51.214;9.202;2023-03-24T06:28:51;97216.00;;;10.99;85.27
30618;BME280;17384;51.214;9.202;2023-03-24T06:31:19;97223.00;;;10.95;85.15
30618;BME280;17384;51.214;9.202;2023-03-24T06:33:47;97220.00;;;10.91;85.66
30618;BME280;17384;51.214;9.202;2023-03-24T06:36:14;97216.44;;;10.85;85.52
30618;BME280;17384;51.214;9.202;2023-03-24T06:38:40;97222.66;;;10.86;85.71
30618;BME280;17384;51.214;9.202;2023-03-24T06:41:06;97231.63;;;10.87;85.83
30618;BME280;17384;51.214;9.202;2023-03-24T06:43:32;97229.75;;;10.87;85.95
30618;BME280;17384;51.214;9.202;2023-03-24T06:45:58;97232.41;;;10.82;86.33
30618;BME280;17384;51.214;9.202;2023-03-24T06:48:24;97244.25;;;10.76;86.29
30618;BME280;17384;51.214;9.202;2023-03-24T06:50:54;97244.75;;;10.73;86.75
30618;BME280;17384;51.214;9.202;2023-03-24T06:53:21;97245.28;;;10.70;86.63
30618;BME280;17384;51.214;9.202;2023-03-24T06:55:48;97261.78;;;10.90;86.26
30618;BME280;17384;51.214;9.202;2023-03-24T06:58:16;97251.25;;;10.94;86.19
30618;BME280;17384;51.214;9.202;2023-03-24T07:00:43;97255.09;;;10.76;86.83
30618;BME280;17384;51.214;9.202;2023-03-24T07:03:11;97272.63;;;10.90;86.70
30618;BME280;17384;51.214;9.202;2023-03-24T07:05:39;97289.47;;;10.92;86.29
30618;BME280;17384;51.214;9.202;2023-03-24T07:08:06;97306.31;;;10.94;86.56
30618;BME280;17384;51.214;9.202;2023-03-24T07:10:32;97321.56;;;11.00;85.95
30618;BME280;17384;51.214;9.202;2023-03-24T07:13:00;97334.47;;;10.88;87.15
30618;BME280;17384;51.214;9.202;2023-03-24T07:15:28;97344.81;;;10.91;86.51
30618;BME280;17384;51.214;9.202;2023-03-24T07:17:54;97340.09;;;10.60;84.51
30618;BME280;17384;51.214;9.202;2023-03-24T07:20:20;97334.44;;;10.44;82.64
30618;BME280;17384;51.214;9.202;2023-03-24T07:22:46;97331.13;;;10.37;81.29
30618;BME280;17384;51.214;9.202;2023-03-24T07:25:12;97343.84;;;10.37;82.50
30618;BME280;17384;51.214;9.202;2023-03-24T07:27:39;97328.59;;;10.52;81.69
30618;BME280;17384;51.214;9.202;2023-03-24T07:30:06;97319.28;;;10.65;81.40
30618;BME280;17384;51.214;9.202;2023-03-24T07:32:32;97331.56;;;10.73;81.94
30618;BME280;17384;51.214;9.202;2023-03-24T07:35:09;97340.41;;;10.85;81.42
30618;BME280;17384;51.214;9.202;2023-03-24T07:37:35;97351.06;;;10.92;81.30
30618;BME280;17384;51.214;9.202;2023-03-24T07:40:04;97343.28;;;11.00;81.44
30618;BME280;17384;51.214;9.202;2023-03-24T07:42:40;97340.13;;;11.08;80.73
30618;BME280;17384;51.214;9.202;2023-03-24T07:45:07;97335.31;;;11.15;79.07
30618;BME280;17384;51.214;9.202;2023-03-24T07:47:35;97343.97;;;11.12;77.01
30618;BME280;17384;51.214;9.202;2023-03-24T07:50:01;97347.59;;;11.23;79.48
30618;BME280;17384;51.214;9.202;2023-03-24T07:52:28;97347.25;;;11.14;78.69
30618;BME280;17384;51.214;9.202;2023-03-24T07:54:55;97345.56;;;11.35;78.75
30618;BME280;17384;51.214;9.202;2023-03-24T07:57:21;97354.59;;;11.41;78.81
30618;BME280;17384;51.214;9.202;2023-03-24T07:59:47;97365.78;;;11.49;76.91
30618;BME280;17384;51.214;9.202;2023-03-24T08:02:19;97367.22;;;11.57;76.15
30618;BME280;17384;51.214;9.202;2023-03-24T08:04:45;97365.75;;;11.71;74.65
30618;BME280;17384;51.214;9.202;2023-03-24T08:07:11;97367.22;;;11.57;73.74
30618;BME280;17384;51.214;9.202;2023-03-24T08:09:39;97355.75;;;11.50;74.96
30618;BME280;17384;51.214;9.202;2023-03-24T08:12:05;97370.94;;;11.46;75.03
30618;BME280;17384;51.214;9.202;2023-03-24T08:14:30;97378.97;;;11.36;73.78
30618;BME280;17384;51.214;9.202;2023-03-24T08:16:56;97375.06;;;11.27;75.50
30618;BME280;17384;51.214;9.202;2023-03-24T08:19:21;97400.88;;;11.29;75.98
30618;BME280;17384;51.214;9.202;2023-03-24T08:21:47;97386.22;;;11.30;75.78
30618;BME280;17384;51.214;9.202;2023-03-24T08:24:12;97398.81;;;11.14;74.02
30618;BME280;17384;51.214;9.202;2023-03-24T08:26:38;97410.63;;;11.03;74.59
30618;BME280;17384;51.214;9.202;2023-03-24T08:29:04;97421.38;;;10.93;75.67
30618;BME280;17384;51.214;9.202;2023-03-24T08:31:34;97414.84;;;10.94;73.35
30618;BME280;17384;51.214;9.202;2023-03-24T08:34:01;97426.84;;;10.98;74.49
30618;BME280;17384;51.214;9.202;2023-03-24T08:36:27;97410.63;;;11.03;73.26
30618;BME280;17384;51.214;9.202;2023-03-24T08:38:53;97423.94;;;11.05;72.37
30618;BME280;17384;51.214;9.202;2023-03-24T08:41:20;97425.91;;;11.09;73.60
30618;BME280;17384;51.214;9.202;2023-03-24T08:43:45;97416.00;;;11.20;73.51
30618;BME280;17384;51.214;9.202;2023-03-24T08:46:11;97413.06;;;11.27;70.88
30618;BME280;17384;51.214;9.202;2023-03-24T08:48:37;97430.69;;;11.24;73.17
30618;BME280;17384;51.214;9.202;2023-03-24T08:51:13;97413.25;;;11.42;72.29
30618;BME280;17384;51.214;9.202;2023-03-24T08:53:39;97420.13;;;11.28;72.01
30618;BME280;17384;51.214;9.202;2023-03-24T08:56:05;97405.31;;;11.35;72.23
30618;BME280;17384;51.214;9.202;2023-03-24T08:58:31;97411.94;;;11.23;70.77
30618;BME280;17384;51.214;9.202;2023-03-24T09:00:56;97420.22;;;11.33;71.91
30618;BME280;17384;51.214;9.202;2023-03-24T09:03:22;97413.44;;;11.35;72.44
30618;BME280;17384;51.214;9.202;2023-03-24T09:05:48;97405.16;;;11.47;71.67
30618;BME280;17384;51.214;9.202;2023-03-24T09:08:15;97403.69;;;11.61;71.59
30618;BME280;17384;51.214;9.202;2023-03-24T09:10:42;97417.00;;;11.63;69.19
30618;BME280;17384;51.214;9.202;2023-03-24T09:13:11;97415.28;;;11.78;71.16
30618;BME280;17384;51.214;9.202;2023-03-24T09:15:36;97433.09;;;11.69;69.59
30618;BME280;17384;51.214;9.202;2023-03-24T09:18:03;97398.75;;;11.58;68.97
30618;BME280;17384;51.214;9.202;2023-03-24T09:20:28;97414.72;;;11.76;70.03
30618;BME280;17384;51.214;9.202;2023-03-24T09:22:54;97413.53;;;11.67;69.64
30618;BME280;17384;51.214;9.202;2023-03-24T09:25:20;97417.44;;;11.76;70.24
30618;BME280;17384;51.214;9.202;2023-03-24T09:27:46;97400.63;;;11.79;70.22
30618;BME280;17384;51.214;9.202;2023-03-24T09:30:14;97382.56;;;11.68;69.97
30618;BME280;17384;51.214;9.202;2023-03-24T09:32:40;97397.41;;;11.61;68.27
30618;BME280;17384;51.214;9.202;2023-03-24T09:35:06;97399.88;;;11.62;70.68
30618;BME280;17384;51.214;9.202;2023-03-24T09:37:33;97399.50;;;11.48;71.57
30618;BME280;17384;51.214;9.202;2023-03-24T09:39:59;97404.72;;;11.33;71.14
30618;BME280;17384;51.214;9.202;2023-03-24T09:42:29;97409.50;;;11.21;70.25
30618;BME280;17384;51.214;9.202;2023-03-24T09:44:58;97417.09;;;11.24;69.42
30618;BME280;17384;51.214;9.202;2023-03-24T09:47:37;97432.06;;;11.27;72.68
30618;BME280;17384;51.214;9.202;2023-03-24T09:50:32;97445.31;;;11.23;72.32
30618;BME280;17384;51.214;9.202;2023-03-24T09:53:06;97429.88;;;11.24;73.59
30618;BME280;17384;51.214;9.202;2023-03-24T09:55:33;97428.03;;;11.29;73.25
30618;BME280;17384;51.214;9.202;2023-03-24T09:58:04;97440.53;;;11.30;73.85
30618;BME280;17384;51.214;9.202;2023-03-24T10:00:32;97446.91;;;11.41;75.00
30618;BME280;17384;51.214;9.202;2023-03-24T10:03:19;97439.72;;;11.30;74.69
30618;BME280;17384;51.214;9.202;2023-03-24T10:06:10;97430.56;;;11.36;74.90
30618;BME280;17384;51.214;9.202;2023-03-24T10:08:42;97433.78;;;11.33;75.39
30618;BME280;17384;51.214;9.202;2023-03-24T10:21:42;97442.13;;;11.75;74.26
30618;BME280;17384;51.214;9.202;2023-03-24T10:24:18;97456.41;;;11.87;71.59
30618;BME280;17384;51.214;9.202;2023-03-24T10:29:28;97444.78;;;11.70;71.79
30618;BME280;17384;51.214;9.202;2023-03-24T10:32:01;97433.63;;;11.66;71.74
30618;BME280;17384;51.214;9.202;2023-03-24T10:34:30;97436.06;;;11.41;71.28
30618;BME280;17384;51.214;9.202;2023-03-24T10:37:00;97430.38;;;11.42;73.36
30618;BME280;17384;51.214;9.202;2023-03-24T10:39:28;97429.63;;;11.47;71.89
30618;BME280;17384;51.214;9.202;2023-03-24T10:41:55;97433.03;;;11.64;73.27
30618;BME280;17384;51.214;9.202;2023-03-24T10:44:22;97432.31;;;11.47;71.89
30618;BME280;17384;51.214;9.202;2023-03-24T10:46:52;97436.22;;;11.56;72.50
30618;BME280;17384;51.214;9.202;2023-03-24T10:49:22;97438.28;;;11.71;72.15
30618;BME280;17384;51.214;9.202;2023-03-24T10:51:52;97429.94;;;11.77;72.38
30618;BME280;17384;51.214;9.202;2023-03-24T10:54:27;97434.25;;;11.73;71.89
30618;BME280;17384;51.214;9.202;2023-03-24T10:59:35;97413.13;;;11.80;70.67
30618;BME280;17384;51.214;9.202;2023-03-24T11:02:16;97422.59;;;11.78;70.76
30618;BME280;17384;51.214;9.202;2023-03-24T11:04:57;97411.03;;;12.19;69.57
30618;BME280;17384;51.214;9.202;2023-03-24T11:07:34;97416.34;;;12.41;67.24
30618;BME280;17384;51.214;9.202;2023-03-24T11:12:42;97430.84;;;12.52;68.85
30618;BME280;17384;51.214;9.202;2023-03-24T11:15:16;97440.84;;;12.41;62.77
30618;BME280;17384;51.214;9.202;2023-03-24T11:17:43;97449.78;;;12.37;62.09
30618;BME280;17384;51.214;9.202;2023-03-24T11:20:18;97468.50;;;12.33;56.20
30618;BME280;17384;51.214;9.202;2023-03-24T11:23:05;97474.13;;;12.22;55.73
30618;BME280;17384;51.214;9.202;2023-03-24T11:25:35;97500.06;;;12.34;55.02
30618;BME280;17384;51.214;9.202;2023-03-24T11:28:08;97530.03;;;12.39;56.57
30618;BME280;17384;51.214;9.202;2023-03-24T11:30:47;97548.81;;;12.41;58.03
30618;BME280;17384;51.214;9.202;2023-03-24T11:35:47;97550.91;;;12.34;53.76
30618;BME280;17384;51.214;9.202;2023-03-24T11:38:29;97553.25;;;12.20;54.99
30618;BME280;17384;51.214;9.202;2023-03-24T11:41:00;97538.19;;;12.39;54.76
30618;BME280;17384;51.214;9.202;2023-03-24T11:43:29;97510.53;;;12.47;54.53
30618;BME280;17384;51.214;9.202;2023-03-24T11:46:09;97484.38;;;12.78;53.51
30618;BME280;17384;51.214;9.202;2023-03-24T11:48:57;97497.84;;;13.00;54.83
30618;BME280;17384;51.214;9.202;2023-03-24T11:51:35;97510.16;;;13.08;53.34
30618;BME280;17384;51.214;9.202;2023-03-24T11:54:04;97526.41;;;12.98;54.39
30618;BME280;17384;51.214;9.202;2023-03-24T11:56:42;97521.78;;;12.98;53.27
30618;BME280;17384;51.214;9.202;2023-03-24T12:15:22;97504.50;;;15.54;47.07
30618;BME280;17384;51.214;9.202;2023-03-24T12:18:19;97508.19;;;15.04;48.71
30618;BME280;17384;51.214;9.202;2023-03-24T12:23:56;97511.19;;;14.98;47.52
30618;BME280;17384;51.214;9.202;2023-03-24T12:26:26;97513.34;;;14.35;47.04
30618;BME280;17384;51.214;9.202;2023-03-24T12:31:56;97497.31;;;14.48;47.56
30618;BME280;17384;51.214;9.202;2023-03-24T12:42:46;97499.75;;;14.65;47.93
30618;BME280;17384;51.214;9.202;2023-03-24T12:53:52;97493.88;;;16.07;44.40
30618;BME280;17384;51.214;9.202;2023-03-24T12:56:33;97486.00;;;15.90;45.09
30618;BME280;17384;51.214;9.202;2023-03-24T12:59:13;97490.13;;;15.18;47.28
30618;BME280;17384;51.214;9.202;2023-03-24T13:01:51;97495.94;;;14.46;48.77
30618;BME280;17384;51.214;9.202;2023-03-24T13:04:24;97501.63;;;14.95;47.65
30618;BME280;17384;51.214;9.202;2023-03-24T13:06:53;97493.69;;;14.17;48.66
30618;BME280;17384;51.214;9.202;2023-03-24T13:12:30;97498.28;;;14.02;48.22
30618;BME280;17384;51.214;9.202;2023-03-24T13:20:21;97513.91;;;13.49;51.36
30618;BME280;17384;51.214;9.202;2023-03-24T13:22:48;97495.47;;;13.66;50.81
30618;BME280;17384;51.214;9.202;2023-03-24T13:25:48;97502.63;;;13.87;51.17
30618;BME280;17384;51.214;9.202;2023-03-24T13:28:25;97501.88;;;14.28;50.68
30618;BME280;17384;51.214;9.202;2023-03-24T13:30:52;97484.72;;;14.57;47.56
30618;BME280;17384;51.214;9.202;2023-03-24T13:33:24;97504.38;;;14.80;48.68
30618;BME280;17384;51.214;9.202;2023-03-24T13:38:45;97486.41;;;15.64;44.59
30618;BME280;17384;51.214;9.202;2023-03-24T13:41:18;97484.53;;;16.13;44.55
30618;BME280;17384;51.214;9.202;2023-03-24T13:43:49;97478.34;;;15.93;44.90
30618;BME280;17384;51.214;9.202;2023-03-24T13:46:16;97471.88;;;16.22;45.51
30618;BME280;17384;51.214;9.202;2023-03-24T13:48:49;97480.47;;;16.06;42.85
30618;BME280;17384;51.214;9.202;2023-03-24T13:51:33;97488.47;;;16.36;44.74
30618;BME280;17384;51.214;9.202;2023-03-24T13:56:35;97483.56;;;15.19;45.82
30618;BME280;17384;51.214;9.202;2023-03-24T14:04:44;97492.59;;;14.29;46.44
30618;BME280;17384;51.214;9.202;2023-03-24T14:10:26;97483.50;;;13.67;44.29
30618;BME280;17384;51.214;9.202;2023-03-24T14:15:31;97491.13;;;13.75;46.08
30618;BME280;17384;51.214;9.202;2023-03-24T14:26:02;97473.91;;;15.42;41.76
30618;BME280;17384;51.214;9.202;2023-03-24T14:28:32;97473.44;;;15.25;44.75
30618;BME280;17384;51.214;9.202;2023-03-24T14:33:27;97475.00;;;15.56;42.28
30618;BME280;17384;51.214;9.202;2023-03-24T14:36:03;97467.69;;;15.27;43.71
30618;BME280;17384;51.214;9.202;2023-03-24T14:38:35;97462.53;;;15.10;44.47
30618;BME280;17384;51.214;9.202;2023-03-24T14:41:07;97463.34;;;15.20;45.11
30618;BME280;17384;51.214;9.202;2023-03-24T14:48:59;97471.09;;;14.42;43.13
30618;BME280;17384;51.214;9.202;2023-03-24T14:54:03;97461.72;;;13.82;43.44
30618;BME280;17384;51.214;9.202;2023-03-24T14:56:35;97463.03;;;13.70;45.00
30618;BME280;17384;51.214;9.202;2023-03-24T14:59:04;97467.66;;;13.69;47.88
30618;BME280;17384;51.214;9.202;2023-03-24T15:01:33;97468.22;;;13.61;44.63
30618;BME280;17384;51.214;9.202;2023-03-24T15:04:06;97468.75;;;13.68;45.85
30618;BME280;17384;51.214;9.202;2023-03-24T15:06:45;97463.06;;;13.80;45.01
30618;BME280;17384;51.214;9.202;2023-03-24T15:09:11;97459.53;;;13.84;44.87
30618;BME280;17384;51.214;9.202;2023-03-24T15:11:38;97456.25;;;13.82;43.85
30618;BME280;17384;51.214;9.202;2023-03-24T15:14:08;97456.81;;;13.84;45.26
30618;BME280;17384;51.214;9.202;2023-03-24T15:16:37;97459.00;;;13.87;45.33
30618;BME280;17384;51.214;9.202;2023-03-24T15:19:22;97443.16;;;13.64;49.51
30618;BME280;17384;51.214;9.202;2023-03-24T15:21:56;97452.63;;;13.51;49.58
30618;BME280;17384;51.214;9.202;2023-03-24T15:24:26;97448.22;;;13.40;50.27
30618;BME280;17384;51.214;9.202;2023-03-24T15:29:35;97449.78;;;14.60;49.14
30618;BME280;17384;51.214;9.202;2023-03-24T15:32:02;97452.78;;;15.63;47.33
30618;BME280;17384;51.214;9.202;2023-03-24T15:34:37;97446.69;;;15.12;48.09
30618;BME280;17384;51.214;9.202;2023-03-24T15:37:06;97452.81;;;14.68;50.11
30618;BME280;17384;51.214;9.202;2023-03-24T15:39:48;97430.41;;;14.31;51.84
30618;BME280;17384;51.214;9.202;2023-03-24T15:42:16;97423.28;;;13.99;52.43
30618;BME280;17384;51.214;9.202;2023-03-24T15:44:42;97427.88;;;13.58;52.86
30618;BME280;17384;51.214;9.202;2023-03-24T15:47:21;97433.28;;;13.48;54.95
30618;BME280;17384;51.214;9.202;2023-03-24T15:49:54;97433.25;;;13.38;51.74
30618;BME280;17384;51.214;9.202;2023-03-24T15:55:00;97432.19;;;13.49;52.29
30618;BME280;17384;51.214;9.202;2023-03-24T15:57:27;97438.72;;;13.48;53.44
30618;BME280;17384;51.214;9.202;2023-03-24T16:02:28;97448.22;;;13.40;55.34
30618;BME280;17384;51.214;9.202;2023-03-24T16:05:00;97436.19;;;13.26;53.94